Practice 1 - Green
Course: Road America · 2026-09-05 08:00AM
Weather Conditions
Temp 69°F
(64–74°F range)
Temp type NORMAL
Track DRY
Precip 0.0 mm (NONE)
Humidity 97%
Wind 13 km/h
Cloud 100%
OVERALL
BY CLASS
| POS | # | NAME | CLASS | BEST LAP | GAP | INTERVAL | LAPS |
|---|---|---|---|---|---|---|---|
| 1 | 320 | GREG ROJIK | SP3 | 2:34.147 | - | - | 7 |
| 2 | 92 | DOUG CROSSMAN | G | 2:35.858 | 1.711 | 1.711 | 6 |
| 3 | 771 | ROB WALKER | SPB | 2:36.514 | 2.367 | 0.656 | 8 |
| 4 | 323 | ROBERT BOXALL | SP3 | 2:37.061 | 2.914 | 0.547 | 7 |
| 5 | 441 | SHAWN O'BRIEN | SPB | 2:37.502 | 3.355 | 0.441 | 8 |
| 6 | 10 | AUSTIN ROLAND | SPB | 2:38.528 | 4.381 | 1.026 | 8 |
| 7 | 18 | ROBERT LINDER | SP3 | 2:38.599 | 4.452 | 0.071 | 7 |
| 8 | 07 | TIM SMITH | 911CUP | 2:39.226 | 5.079 | 0.627 | 7 |
| 9 | 515 | RICHARD EGLESTON | H | 2:39.346 | 5.199 | 0.120 | 6 |
| 10 | 106 | DALLAS CARROLL | SPB | 2:39.641 | 5.494 | 0.295 | 7 |
| 11 | 372 | CHRIS MacDUFF | SPB | 2:40.262 | 6.115 | 0.621 | 6 |
| 12 | 165 | TAMER ELBAGA | SPB | 2:40.700 | 6.553 | 0.438 | 8 |
| 13 | 941 | JOHN MILLER | I | 2:42.070 | 7.923 | 1.370 | 7 |
| 14 | 2 | BOB VAN ZELST | G | 2:42.570 | 8.423 | 0.500 | 3 |
| 15 | 598 | PHILIP MITCHELL | SPB | 2:42.754 | 8.607 | 0.184 | 7 |
| 16 | 622 | STAN WENGER | SPB | 2:45.856 | 11.709 | 3.102 | 7 |
| 17 | 89 | JOHN BIRK | SPB | 2:46.248 | 12.101 | 0.392 | 7 |
| 18 | 222 | CHARLIE REITER | SP3 | 2:51.781 | 17.634 | 5.533 | 2 |
| 19 | 56 | ALBERT SALVADOR | SP1 | 2:55.464 | 21.317 | 3.683 | 7 |
| 20 | 47 | ROBERTO FRAGOMENI | SP3 | 2:56.111 | 21.964 | 0.647 | 6 |
| 21 | 50 | GLEN LARSON | D | 2:56.344 | 22.197 | 0.233 | 3 |
Pole Position